Time;durP1;ratioP1;P1;durP2;ratioP2;P2;SDS_P1;SDS_P2;PMS_P1;PMS_P2;Temp;Humidity;BMP_temperature;BMP_pressure;BME280_temperature;BME280_humidity;BME280_pressure;Samples;Min_cycle;Max_cycle;Signal;HPM_P1;HPM_P2
2023/09/20 00:02:09;;;;;;;0.57;0.50;;;;;;;14.28;100.00;98637.91;5126891;28;20494;-64
2023/09/20 00:04:35;;;;;;;0.30;0.30;;;;;;;14.32;100.00;98654.28;5126227;28;20051;-64
2023/09/20 00:07:01;;;;;;;0.52;0.50;;;;;;;14.36;100.00;98646.19;5126573;28;20028;-63
2023/09/20 00:09:27;;;;;;;0.98;0.50;;;;;;;14.38;100.00;98641.75;5126897;28;20027;-63
2023/09/20 00:11:53;;;;;;;0.35;0.35;;;;;;;14.28;100.00;98621.44;5125421;28;20027;-65
2023/09/20 00:14:19;;;;;;;2.72;0.50;;;;;;;14.30;100.00;98650.91;5126509;28;20024;-64
2023/09/20 00:16:44;;;;;;;1.33;0.70;;;;;;;14.25;100.00;98643.31;5125178;28;20027;-64
2023/09/20 00:19:09;;;;;;;0.85;0.30;;;;;;;14.18;100.00;98652.38;5126483;28;20026;-64
2023/09/20 00:21:35;;;;;;;3.72;0.63;;;;;;;14.04;100.00;98643.50;5126396;28;20023;-65
2023/09/20 00:24:04;;;;;;;1.30;0.85;;;;;;;14.06;100.00;98646.88;5126508;28;20023;-66
2023/09/20 00:26:30;;;;;;;1.13;0.70;;;;;;;14.05;100.00;98657.38;5126598;28;20035;-68
2023/09/20 00:29:03;;;;;;;2.95;0.68;;;;;;;14.00;100.00;98668.06;5126215;28;20463;-68
2023/09/20 00:31:29;;;;;;;1.25;0.52;;;;;;;13.98;100.00;98652.47;5125088;28;20035;-67
2023/09/20 00:33:56;;;;;;;0.88;0.52;;;;;;;13.94;100.00;98655.34;5126423;28;20075;-67
2023/09/20 00:36:21;;;;;;;1.13;0.63;;;;;;;13.92;100.00;98658.00;5126242;28;20181;-66
2023/09/20 00:38:49;;;;;;;0.40;0.40;;;;;;;13.88;100.00;98675.56;5126175;28;20027;-68
2023/09/20 00:41:15;;;;;;;1.35;0.82;;;;;;;13.83;100.00;98675.00;5126332;28;20455;-67
2023/09/20 00:43:41;;;;;;;1.77;0.68;;;;;;;13.72;100.00;98664.25;5125883;28;20173;-68
2023/09/20 00:46:09;;;;;;;0.30;0.30;;;;;;;13.62;100.00;98661.25;5126120;28;20023;-67
2023/09/20 00:48:35;;;;;;;2.72;0.65;;;;;;;13.56;100.00;98666.75;5126007;28;20023;-68
2023/09/20 00:51:02;;;;;;;0.60;0.43;;;;;;;13.45;100.00;98673.28;5126191;28;20028;-67
2023/09/20 00:53:28;;;;;;;1.67;0.73;;;;;;;13.37;100.00;98668.44;5126233;28;20023;-67
2023/09/20 00:55:54;;;;;;;1.33;0.63;;;;;;;13.36;100.00;98679.81;5125920;27;20032;-68
2023/09/20 00:58:20;;;;;;;1.10;0.52;;;;;;;13.36;100.00;98681.56;5125672;28;20019;-67
2023/09/20 01:00:46;;;;;;;0.63;0.50;;;;;;;13.32;100.00;98680.84;5126038;28;20047;-69
2023/09/20 01:03:17;;;;;;;8.07;0.40;;;;;;;13.22;100.00;98687.44;5126194;28;20026;-68
2023/09/20 01:05:42;;;;;;;0.43;0.32;;;;;;;13.05;100.00;98685.63;5124685;28;20024;-69
2023/09/20 01:08:08;;;;;;;0.43;0.43;;;;;;;13.01;100.00;98683.16;5125521;28;20383;-69
2023/09/20 01:10:37;;;;;;;0.30;0.30;;;;;;;12.93;100.00;98702.66;5125903;28;20049;-69
2023/09/20 01:13:09;;;;;;;4.68;1.00;;;;;;;12.93;100.00;98706.09;5125396;28;20024;-70
2023/09/20 01:15:36;;;;;;;0.60;0.60;;;;;;;12.92;100.00;98706.19;5125017;28;20023;-70
2023/09/20 01:18:04;;;;;;;2.03;0.60;;;;;;;12.97;100.00;98712.84;5125517;28;20028;-70
2023/09/20 01:20:31;;;;;;;1.92;0.60;;;;;;;12.95;100.00;98706.03;5125491;28;20097;-69
2023/09/20 01:22:58;;;;;;;0.40;0.40;;;;;;;12.92;100.00;98712.25;5125891;28;20019;-70
2023/09/20 01:25:25;;;;;;;0.80;0.32;;;;;;;12.89;100.00;98720.19;5125582;28;20075;-70
2023/09/20 01:27:55;;;;;;;8.88;0.80;;;;;;;12.86;100.00;98728.97;5125436;28;20065;-69
2023/09/20 01:30:25;;;;;;;0.65;0.40;;;;;;;12.86;100.00;98730.75;5125862;28;20027;-69
2023/09/20 01:32:52;;;;;;;1.02;0.30;;;;;;;12.83;100.00;98734.31;5125670;28;20023;-70
2023/09/20 01:35:19;;;;;;;0.68;0.30;;;;;;;12.80;100.00;98731.84;5124343;28;20114;-69
2023/09/20 01:37:44;;;;;;;0.50;0.40;;;;;;;12.75;100.00;98729.44;5125423;28;20046;-69
2023/09/20 01:40:16;;;;;;;4.50;0.52;;;;;;;12.72;100.00;98733.94;5125577;28;20020;-70
2023/09/20 01:42:46;;;;;;;0.45;0.45;;;;;;;12.66;100.00;98729.00;5124306;28;20031;-69
2023/09/20 01:45:14;;;;;;;0.38;0.38;;;;;;;12.63;100.00;98730.00;5125609;28;20020;-70
2023/09/20 01:47:42;;;;;;;0.30;0.30;;;;;;;12.59;100.00;98724.06;5125378;28;20084;-70
2023/09/20 01:50:10;;;;;;;0.65;0.40;;;;;;;12.63;100.00;98725.66;5125607;28;20035;-70
2023/09/20 01:52:37;;;;;;;0.30;0.30;;;;;;;12.68;100.00;98728.06;5125478;28;20055;-70
2023/09/20 01:55:02;;;;;;;0.77;0.40;;;;;;;12.73;100.00;98728.66;5125060;28;20024;-70
2023/09/20 01:57:28;;;;;;;0.68;0.52;;;;;;;12.75;100.00;98726.84;5125081;28;20030;-70
2023/09/20 01:59:53;;;;;;;0.52;0.50;;;;;;;12.79;100.00;98727.56;5124844;28;20036;-71
2023/09/20 02:02:18;;;;;;;5.15;0.95;;;;;;;12.80;100.00;98736.19;5123260;28;20070;-70
2023/09/20 02:04:44;;;;;;;0.40;0.35;;;;;;;12.77;100.00;98721.56;5125279;28;20060;-70
2023/09/20 02:07:11;;;;;;;2.55;1.02;;;;;;;12.74;100.00;98719.97;5125229;28;20024;-69
2023/09/20 02:09:36;;;;;;;0.32;0.32;;;;;;;12.77;100.00;98732.00;5125198;28;20050;-70
2023/09/20 02:12:02;;;;;;;0.30;0.30;;;;;;;12.74;100.00;98735.59;5125211;28;20019;-71
2023/09/20 02:14:27;;;;;;;0.28;0.28;;;;;;;12.76;100.00;98743.31;5123628;28;20183;-71
2023/09/20 02:16:52;;;;;;;0.22;0.22;;;;;;;12.72;100.00;98742.59;5125195;28;20024;-70
2023/09/20 02:19:19;;;;;;;0.47;0.47;;;;;;;12.76;100.00;98751.97;5125193;28;20027;-70
2023/09/20 02:21:45;;;;;;;0.40;0.40;;;;;;;12.74;100.00;98737.34;5125034;28;20506;-70
2023/09/20 02:24:11;;;;;;;0.30;0.30;;;;;;;12.77;100.00;98745.00;5123939;28;20031;-71
2023/09/20 02:26:37;;;;;;;5.70;0.77;;;;;;;12.68;100.00;98727.19;5126563;28;20020;-71
2023/09/20 02:29:03;;;;;;;0.63;0.50;;;;;;;12.75;100.00;98745.06;5127951;28;20076;-71
2023/09/20 02:31:28;;;;;;;0.40;0.40;;;;;;;12.74;100.00;98746.00;5127647;28;20028;-71
2023/09/20 02:33:55;;;;;;;0.70;0.40;;;;;;;12.71;100.00;98740.94;5128454;28;20027;-71
2023/09/20 02:36:20;;;;;;;4.65;0.40;;;;;;;12.75;100.00;98742.47;5127250;28;20030;-71
2023/09/20 02:38:46;;;;;;;0.77;0.47;;;;;;;12.76;100.00;98738.13;5128198;28;20118;-71
2023/09/20 02:41:11;;;;;;;0.85;0.40;;;;;;;12.71;100.00;98732.25;5128489;28;20027;-70
2023/09/20 02:43:38;;;;;;;0.52;0.40;;;;;;;12.70;100.00;98735.78;5128321;28;20084;-71
2023/09/20 02:46:05;;;;;;;1.55;0.47;;;;;;;12.66;100.00;98739.41;5128437;28;20045;-71
2023/09/20 02:48:31;;;;;;;0.85;0.40;;;;;;;12.65;100.00;98743.81;5128598;28;20072;-71
2023/09/20 02:50:59;;;;;;;1.60;0.52;;;;;;;12.65;100.00;98738.59;5128335;28;20020;-70
2023/09/20 02:53:25;;;;;;;0.20;0.20;;;;;;;12.67;100.00;98741.13;5128235;28;20379;-71
2023/09/20 02:55:50;;;;;;;0.40;0.30;;;;;;;12.67;100.00;98741.13;5127648;27;20272;-70
2023/09/20 02:58:17;;;;;;;1.95;0.57;;;;;;;12.67;100.00;98730.72;5127634;28;20079;-70
2023/09/20 03:00:50;;;;;;;0.60;0.52;;;;;;;12.57;100.00;98717.25;5127847;28;20054;-70
2023/09/20 03:03:17;;;;;;;2.08;0.45;;;;;;;12.67;100.00;98730.72;5128004;28;20022;-70
2023/09/20 03:05:43;;;;;;;0.50;0.50;;;;;;;12.70;100.00;98728.81;5127946;27;20088;-70
2023/09/20 03:08:11;;;;;;;0.38;0.38;;;;;;;12.71;100.00;98732.25;5127850;28;20092;-71
2023/09/20 03:10:38;;;;;;;0.30;0.30;;;;;;;12.70;100.00;98735.78;5127839;28;20020;-70
2023/09/20 03:13:05;;;;;;;0.70;0.38;;;;;;;12.69;100.00;98728.88;5127621;28;20035;-71
2023/09/20 03:15:32;;;;;;;0.47;0.47;;;;;;;12.71;100.00;98740.94;5127889;28;20024;-70
2023/09/20 03:18:02;;;;;;;0.95;0.55;;;;;;;12.69;100.00;98745.34;5127597;28;20433;-70
2023/09/20 03:20:34;;;;;;;0.98;0.70;;;;;;;12.70;100.00;98746.19;5127873;28;20020;-71
2023/09/20 03:23:03;;;;;;;0.80;0.75;;;;;;;12.73;100.00;98746.06;5127805;28;20023;-69
2023/09/20 03:25:29;;;;;;;0.43;0.43;;;;;;;12.70;100.00;98735.78;5127656;28;20039;-69
2023/09/20 03:27:56;;;;;;;0.50;0.40;;;;;;;12.69;100.00;98736.69;5127345;28;20024;-69
2023/09/20 03:30:22;;;;;;;2.33;0.90;;;;;;;12.75;100.00;98741.63;5127289;28;20050;-69
2023/09/20 03:32:49;;;;;;;0.40;0.40;;;;;;;12.77;100.00;98743.25;5127755;28;20020;-69
2023/09/20 03:35:16;;;;;;;0.35;0.35;;;;;;;12.76;100.00;98740.72;5127352;28;20049;-70
2023/09/20 03:37:43;;;;;;;0.85;0.70;;;;;;;12.78;100.00;98723.25;5126510;28;20016;-70
2023/09/20 03:40:17;;;;;;;0.82;0.40;;;;;;;12.79;100.00;98726.72;5127448;28;20027;-69
2023/09/20 03:42:48;;;;;;;0.90;0.68;;;;;;;12.84;100.00;98717.75;5126097;28;20019;-69
2023/09/20 03:45:14;;;;;;;0.75;0.70;;;;;;;12.82;100.00;98716.16;5126936;28;20027;-69
2023/09/20 03:47:44;;;;;;;0.68;0.68;;;;;;;12.82;100.00;98727.44;5127284;28;20024;-68
2023/09/20 03:50:10;;;;;;;1.90;0.80;;;;;;;12.84;100.00;98720.38;5127059;28;20027;-68
2023/09/20 03:52:39;;;;;;;1.75;0.70;;;;;;;12.86;100.00;98720.34;5127323;28;20024;-68
2023/09/20 03:55:05;;;;;;;0.40;0.40;;;;;;;12.83;100.00;98712.63;5127071;28;20038;-68
2023/09/20 03:57:31;;;;;;;0.75;0.52;;;;;;;12.86;100.00;98709.91;5126843;28;20024;-68
2023/09/20 04:00:00;;;;;;;0.80;0.80;;;;;;;12.83;100.00;98704.81;5125462;28;20047;-68
2023/09/20 04:02:26;;;;;;;0.50;0.50;;;;;;;12.86;100.00;98715.94;5126722;28;20027;-67
2023/09/20 04:04:55;;;;;;;5.32;0.85;;;;;;;12.83;100.00;98710.88;5126732;28;20020;-70
2023/09/20 04:07:26;;;;;;;0.75;0.75;;;;;;;12.89;100.00;98715.81;5126788;28;20023;-68
2023/09/20 04:09:52;;;;;;;3.40;0.98;;;;;;;12.88;100.00;98723.69;5125361;28;20395;-70
2023/09/20 04:12:18;;;;;;;0.60;0.60;;;;;;;12.86;100.00;98718.56;5127012;28;20028;-69
2023/09/20 04:14:43;;;;;;;2.88;0.82;;;;;;;12.86;100.00;98713.34;5126328;28;20172;-70
2023/09/20 04:17:09;;;;;;;0.75;0.75;;;;;;;12.87;100.00;98722.00;5124975;28;20030;-69
2023/09/20 04:19:34;;;;;;;1.40;0.68;;;;;;;12.85;100.00;98719.47;5126485;28;20083;-69
2023/09/20 04:22:04;;;;;;;1.10;0.75;;;;;;;12.83;100.00;98715.22;5126573;27;20030;-69
2023/09/20 04:24:33;;;;;;;1.00;0.70;;;;;;;12.86;100.00;98733.34;5126317;28;20077;-69
2023/09/20 04:26:58;;;;;;;0.57;0.50;;;;;;;12.88;100.00;98724.53;5126430;28;20076;-69
2023/09/20 04:29:25;;;;;;;0.50;0.50;;;;;;;12.88;100.00;98719.34;5126356;28;20024;-69
2023/09/20 04:31:52;;;;;;;0.70;0.55;;;;;;;12.91;100.00;98720.13;5126121;28;20038;-70
2023/09/20 04:34:18;;;;;;;0.52;0.45;;;;;;;12.93;100.00;98724.34;5126260;28;20167;-71
2023/09/20 04:36:44;;;;;;;0.52;0.52;;;;;;;12.92;100.00;98720.06;5125974;28;20027;-70
2023/09/20 04:39:16;;;;;;;0.80;0.63;;;;;;;12.94;100.00;98725.19;5125959;28;20039;-70
2023/09/20 04:41:42;;;;;;;;;;;;;;;13.03;100.00;98716.94;5126637;27;20042;-69
2023/09/20 04:44:07;;;;;;;10.13;1.33;;;;;;;12.96;100.00;98712.91;5125677;28;20228;-69
2023/09/20 04:46:35;;;;;;;1.38;0.85;;;;;;;12.96;100.00;98710.31;5124791;28;20019;-69
2023/09/20 04:49:05;;;;;;;7.38;0.70;;;;;;;13.03;100.00;98714.34;5126043;28;20523;-69
2023/09/20 04:51:31;;;;;;;2.15;0.68;;;;;;;13.02;100.00;98710.03;5125782;28;20038;-69
2023/09/20 04:53:57;;;;;;;0.98;0.82;;;;;;;13.05;100.00;98709.06;5126180;28;20015;-69
2023/09/20 04:56:23;;;;;;;0.50;0.50;;;;;;;13.09;100.00;98714.06;5126108;28;20023;-69
2023/09/20 04:58:49;;;;;;;0.47;0.47;;;;;;;13.10;100.00;98710.53;5125536;28;20499;-68
2023/09/20 05:01:15;;;;;;;0.52;0.50;;;;;;;13.14;100.00;98704.28;5126226;28;20050;-69
2023/09/20 05:03:40;;;;;;;0.60;0.57;;;;;;;13.17;100.00;98707.63;5124836;28;20031;-70
2023/09/20 05:06:07;;;;;;;0.40;0.40;;;;;;;13.23;100.00;98710.81;5125979;28;20019;-70
2023/09/20 05:08:33;;;;;;;0.60;0.60;;;;;;;13.25;100.00;98708.13;5126010;28;20031;-70
2023/09/20 05:10:58;;;;;;;0.50;0.47;;;;;;;13.30;100.00;98716.59;5126140;28;20030;-69
2023/09/20 05:13:24;;;;;;;0.30;0.30;;;;;;;13.37;100.00;98724.97;5125659;28;20019;-68
2023/09/20 05:15:50;;;;;;;6.85;0.75;;;;;;;13.42;100.00;98711.72;5125835;28;20023;-69
2023/09/20 05:18:16;;;;;;;8.45;0.73;;;;;;;13.47;100.00;98721.00;5125686;28;20026;-67
2023/09/20 05:20:42;;;;;;;8.85;0.82;;;;;;;13.51;100.00;98732.16;5125576;28;20075;-66
2023/09/20 05:23:08;;;;;;;0.52;0.52;;;;;;;13.54;100.00;98733.75;5125518;28;20030;-68
2023/09/20 05:25:34;;;;;;;0.90;0.73;;;;;;;13.61;100.00;98729.97;5124328;28;20052;-67
2023/09/20 05:27:59;;;;;;;0.40;0.40;;;;;;;13.75;100.00;98744.94;5125625;28;20027;-65
2023/09/20 05:30:26;;;;;;;0.40;0.40;;;;;;;13.86;100.00;98742.66;5125611;28;20158;-67
2023/09/20 05:32:51;;;;;;;1.95;0.73;;;;;;;13.96;100.00;98736.97;5125554;28;20031;-68
2023/09/20 05:35:17;;;;;;;0.75;0.55;;;;;;;14.11;100.00;98744.03;5125772;28;20023;-67
2023/09/20 05:37:43;;;;;;;1.75;1.13;;;;;;;14.29;100.00;98737.97;5125458;28;20087;-67
2023/09/20 05:40:17;;;;;;;2.53;1.30;;;;;;;14.48;100.00;98753.53;5124323;28;20028;-65
2023/09/20 05:42:51;;;;;;;1.30;0.90;;;;;;;14.61;100.00;98745.91;5125225;28;20112;-67
2023/09/20 05:45:20;;;;;;;8.35;0.90;;;;;;;14.73;100.00;98737.44;5123725;28;20023;-67
2023/09/20 05:47:45;;;;;;;4.32;1.45;;;;;;;14.92;100.00;98746.09;5125494;28;20023;-67
2023/09/20 05:50:13;;;;;;;2.88;1.50;;;;;;;15.08;100.00;98744.34;5124005;28;20023;-66
2023/09/20 05:52:43;;;;;;;1.80;0.90;;;;;;;15.24;100.00;98741.75;5125356;28;20028;-65
2023/09/20 05:55:13;;;;;;;2.67;1.50;;;;;;;15.35;100.00;98746.38;5124025;28;20110;-66
2023/09/20 05:57:45;;;;;;;8.48;2.53;;;;;;;15.46;100.00;98737.94;5125528;28;20027;-65
2023/09/20 06:00:22;;;;;;;3.78;2.13;;;;;;;15.58;100.00;98751.25;5125093;28;20046;-65
2023/09/20 06:02:47;;;;;;;5.03;1.95;;;;;;;15.65;100.00;98754.38;5129015;28;20023;-66
2023/09/20 06:05:19;;;;;;;11.65;2.70;;;;;;;15.76;100.00;98746.78;5129375;28;20050;-66
2023/09/20 06:07:44;;;;;;;8.85;1.90;;;;;;;15.85;100.00;98746.25;5129399;28;20445;-66
2023/09/20 06:10:13;;;;;;;7.85;2.83;;;;;;;15.92;100.00;98757.22;5129366;28;20502;-66
2023/09/20 06:12:38;;;;;;;6.60;2.38;;;;;;;15.99;100.00;98762.94;5129227;28;20064;-66
2023/09/20 06:15:07;;;;;;;6.70;2.40;;;;;;;15.93;100.00;98764.13;5128940;28;20114;-65
2023/09/20 06:17:33;;;;;;;2.95;1.30;;;;;;;15.97;100.00;98770.88;5129126;28;20015;-65
2023/09/20 06:19:59;;;;;;;4.55;1.63;;;;;;;16.02;100.00;98777.66;5129107;28;20054;-66
2023/09/20 06:22:28;;;;;;;1.20;0.77;;;;;;;16.04;100.00;98765.31;5129200;28;20084;-66
2023/09/20 06:24:58;;;;;;;1.13;1.02;;;;;;;16.05;100.00;98775.69;5128980;28;20031;-66
2023/09/20 06:27:24;;;;;;;5.22;2.65;;;;;;;16.10;100.00;98771.03;5128871;27;20024;-67
2023/09/20 06:29:51;;;;;;;8.75;2.78;;;;;;;16.16;100.00;98774.22;5128765;28;20461;-67
2023/09/20 06:32:16;;;;;;;6.28;2.05;;;;;;;16.18;100.00;98761.91;5128869;28;20016;-67
2023/09/20 06:34:42;;;;;;;5.22;2.25;;;;;;;16.36;100.00;98770.44;5128737;28;20083;-67
2023/09/20 06:37:09;;;;;;;5.88;1.90;;;;;;;16.44;100.00;98777.84;5128708;28;20020;-66
2023/09/20 06:39:35;;;;;;;7.93;2.45;;;;;;;16.48;100.00;98779.34;5127327;28;20024;-66
2023/09/20 06:42:01;;;;;;;11.60;2.22;;;;;;;16.49;100.00;98783.66;5128724;28;20038;-66
2023/09/20 06:44:27;;;;;;;5.13;2.00;;;;;;;16.51;100.00;98784.41;5128361;28;20023;-65
2023/09/20 06:46:52;;;;;;;22.80;2.13;;;;;;;16.45;100.00;98790.84;5128726;28;20043;-65
2023/09/20 06:49:18;;;;;;;4.60;2.40;;;;;;;16.43;100.00;98797.09;5128430;28;20031;-64
2023/09/20 06:51:43;;;;;;;15.57;3.63;;;;;;;16.46;100.00;98792.53;5128420;28;20030;-66
2023/09/20 06:54:09;;;;;;;3.55;1.33;;;;;;;16.48;100.00;98805.53;5127219;28;20491;-65
2023/09/20 06:56:35;;;;;;;18.17;1.85;;;;;;;16.47;100.00;98804.69;5128382;27;20012;-64
2023/09/20 06:59:01;;;;;;;8.65;2.47;;;;;;;16.42;100.00;98803.28;5126513;28;20155;-65
2023/09/20 07:01:27;;;;;;;7.65;2.35;;;;;;;16.43;100.00;98816.28;5128091;28;20019;-64
2023/09/20 07:03:52;;;;;;;3.35;0.95;;;;;;;16.41;100.00;98818.16;5128156;28;20073;-65
2023/09/20 07:06:18;;;;;;;2.30;1.27;;;;;;;16.44;100.00;98824.97;5128284;28;20084;-66
2023/09/20 07:08:45;;;;;;;4.53;1.75;;;;;;;16.41;100.00;98818.16;5126847;28;20039;-65
2023/09/20 07:11:12;;;;;;;8.13;1.73;;;;;;;16.39;100.00;98833.09;5128110;28;20459;-66
2023/09/20 07:13:37;;;;;;;11.27;3.10;;;;;;;16.46;100.00;98817.88;5126734;28;20027;-65
2023/09/20 07:16:05;;;;;;;11.75;2.15;;;;;;;16.46;100.00;98829.22;5127874;28;20383;-65
2023/09/20 07:18:31;;;;;;;11.73;1.42;;;;;;;16.50;100.00;98829.03;5126573;28;20026;-65
2023/09/20 07:20:56;;;;;;;5.60;2.08;;;;;;;16.53;100.00;98837.56;5127244;28;20023;-65
2023/09/20 07:23:23;;;;;;;10.82;2.72;;;;;;;16.57;100.00;98849.53;5127073;28;20092;-64
2023/09/20 07:25:50;;;;;;;6.90;2.17;;;;;;;16.63;100.00;98848.31;5127247;28;20023;-64
2023/09/20 07:28:16;;;;;;;4.75;1.40;;;;;;;16.63;100.00;98844.88;5126843;28;20022;-64
2023/09/20 07:30:46;;;;;;;4.00;1.13;;;;;;;16.65;100.00;98856.09;5126843;28;20019;-63
2023/09/20 07:33:14;;;;;;;5.40;2.25;;;;;;;16.65;100.00;98862.19;5108646;22;20052;-61
2023/09/20 07:35:52;;;;;;;7.05;3.05;;;;;;;16.58;100.00;98840.72;5060424;22;1137803;-61
2023/09/20 07:40:50;;;;;;;2.63;1.45;;;;;;;16.62;100.00;98872.84;5075501;22;20045;-63
2023/09/20 07:43:17;;;;;;;8.23;2.13;;;;;;;16.64;100.00;98885.84;5132985;22;20494;-60
2023/09/20 07:45:43;;;;;;;6.28;2.17;;;;;;;16.58;100.00;98880.03;5100326;22;20060;-63
2023/09/20 07:48:12;;;;;;;12.95;1.75;;;;;;;16.57;100.00;98880.13;5067999;28;20125;-64
2023/09/20 07:50:41;;;;;;;7.03;1.98;;;;;;;16.64;100.00;98878.84;5086126;28;20024;-64
2023/09/20 07:53:11;;;;;;;15.65;2.67;;;;;;;16.65;100.00;98898.84;5085991;28;20024;-64
2023/09/20 07:55:41;;;;;;;5.57;2.17;;;;;;;16.70;100.00;98898.59;5086041;28;20099;-63
2023/09/20 07:58:08;;;;;;;3.17;1.58;;;;;;;16.80;100.00;98889.28;5085820;28;20460;-64
2023/09/20 08:00:38;;;;;;;1.70;1.13;;;;;;;16.77;100.00;98905.19;5084389;28;20036;-63
2023/09/20 08:03:05;;;;;;;5.63;1.58;;;;;;;16.77;100.00;98893.84;5084548;28;20031;-64
2023/09/20 08:05:30;;;;;;;6.63;2.45;;;;;;;16.80;100.00;98899.75;5085729;28;20020;-63
2023/09/20 08:07:55;;;;;;;6.97;2.55;;;;;;;16.78;100.00;98901.63;5085754;28;20086;-62
2023/09/20 08:10:21;;;;;;;9.57;1.33;;;;;;;16.84;100.00;98906.50;5086249;28;20465;-62
2023/09/20 08:12:46;;;;;;;16.55;3.85;;;;;;;16.87;100.00;98894.97;5086074;28;20031;-62
2023/09/20 08:15:12;;;;;;;4.93;2.05;;;;;;;16.93;100.00;98897.22;5085932;28;20468;-63
2023/09/20 08:20:22;;;;;;;5.22;2.50;;;;;;;17.18;100.00;98887.94;5085888;28;20535;-63
2023/09/20 09:01:19;;;;;;;3.15;2.17;;;;;;;17.87;100.00;98931.00;5085440;28;20109;-63
2023/09/20 09:03:45;;;;;;;12.75;2.85;;;;;;;17.84;100.00;98934.66;5085410;28;20028;-62
2023/09/20 09:06:10;;;;;;;17.10;3.35;;;;;;;17.86;100.00;98944.22;5085369;28;20081;-61
2023/09/20 09:08:36;;;;;;;8.95;2.38;;;;;;;17.89;100.00;98934.34;5067530;28;20028;-62
2023/09/20 09:11:01;;;;;;;11.40;2.05;;;;;;;17.95;99.87;98944.50;5085332;28;20552;-62
2023/09/20 09:13:28;;;;;;;7.97;2.75;;;;;;;17.95;99.72;98948.91;5085184;28;20040;-61
2023/09/20 09:15:53;;;;;;;9.30;2.08;;;;;;;17.95;98.92;98952.38;5084795;28;20052;-62
2023/09/20 09:18:18;;;;;;;11.60;2.47;;;;;;;18.02;99.28;98960.69;5092955;22;20106;-60
2023/09/20 09:20:45;;;;;;;9.00;1.88;;;;;;;18.07;99.61;98952.53;5091591;22;20048;-62
2023/09/20 09:23:10;;;;;;;4.53;1.40;;;;;;;18.13;98.44;98956.59;5082811;28;20431;-62
2023/09/20 09:25:35;;;;;;;6.82;3.13;;;;;;;18.21;97.86;98960.41;5084144;28;20046;-61
2023/09/20 09:28:01;;;;;;;7.13;2.30;;;;;;;18.27;97.54;98966.22;5085003;28;20036;-61
2023/09/20 09:30:26;;;;;;;9.55;1.38;;;;;;;18.35;97.31;98977.09;5084753;28;20127;-62
2023/09/20 09:32:51;;;;;;;9.25;1.40;;;;;;;18.31;95.59;98971.16;5084712;28;20025;-61
2023/09/20 09:35:19;;;;;;;6.25;1.60;;;;;;;18.21;94.99;98975.34;5084409;28;20028;-62
2023/09/20 09:37:44;;;;;;;6.45;2.63;;;;;;;18.21;95.50;98975.34;5088153;28;20364;-61
2023/09/20 09:40:14;;;;;;;7.68;2.28;;;;;;;18.15;95.51;98980.94;5088755;28;20024;-62
2023/09/20 09:42:43;;;;;;;3.85;1.88;;;;;;;18.06;95.90;98983.22;5089182;28;20426;-62
2023/09/20 09:45:09;;;;;;;2.70;1.60;;;;;;;17.91;96.15;98984.16;5088810;28;20012;-62
2023/09/20 09:47:36;;;;;;;9.77;1.95;;;;;;;17.93;96.39;98983.13;5088970;28;20103;-61
2023/09/20 09:50:06;;;;;;;4.95;1.75;;;;;;;18.02;97.08;98983.50;5088689;28;20491;-61
2023/09/20 09:52:33;;;;;;;2.95;1.90;;;;;;;18.06;96.54;98988.47;5088758;28;20488;-62
2023/09/20 09:54:58;;;;;;;7.07;2.95;;;;;;;18.05;96.47;98985.94;5088247;28;20035;-63
2023/09/20 09:57:24;;;;;;;10.50;2.92;;;;;;;18.06;96.32;98996.34;5088613;28;20021;-62
2023/09/20 09:59:51;;;;;;;2.00;1.40;;;;;;;18.03;96.17;98999.16;5088437;28;20051;-61
2023/09/20 10:02:18;;;;;;;11.35;2.63;;;;;;;18.16;97.00;99004.50;5088546;28;20017;-62
2023/09/20 10:05:13;;;;;;;2.10;1.65;;;;;;;18.56;95.98;98989.78;5088123;28;20021;-61
2023/09/20 10:07:44;;;;;;;7.25;1.67;;;;;;;18.68;94.13;99003.91;5084688;28;20056;-61
2023/09/20 10:10:12;;;;;;;6.40;2.10;;;;;;;18.74;93.83;99000.88;5087209;28;20020;-62
2023/09/20 10:12:39;;;;;;;6.90;1.75;;;;;;;18.87;91.90;99011.41;5088340;28;20088;-62
2023/09/20 10:15:09;;;;;;;7.22;1.33;;;;;;;18.88;91.12;99010.47;5088109;28;20020;-62
2023/09/20 10:17:44;;;;;;;4.90;1.77;;;;;;;18.86;91.36;99001.00;5088375;28;20081;-61
2023/09/20 10:20:10;;;;;;;2.95;2.20;;;;;;;18.97;91.50;98992.41;5088060;28;20041;-62
2023/09/20 10:22:41;;;;;;;7.35;1.70;;;;;;;19.24;90.79;99002.91;5087768;28;20434;-61
2023/09/20 10:25:29;;;;;;;4.03;1.27;;;;;;;19.39;88.46;99010.72;5088284;28;20044;-61
2023/09/20 10:27:55;;;;;;;3.00;1.02;;;;;;;19.64;89.36;99015.13;5088091;28;20248;-62
2023/09/20 10:30:21;;;;;;;3.53;1.10;;;;;;;19.87;89.01;99010.03;5087772;28;20020;-62
2023/09/20 10:32:52;;;;;;;8.75;1.58;;;;;;;20.12;88.50;99021.53;5088105;28;20027;-62
2023/09/20 10:35:33;;;;;;;;;;;;;;;20.71;87.36;99023.56;5088445;28;20191;-61
2023/09/20 10:38:20;;;;;;;7.63;1.45;;;;;;;20.94;83.35;99032.47;5087808;28;19920;-62
2023/09/20 10:40:45;;;;;;;1.65;0.88;;;;;;;20.49;81.47;99044.44;5087983;28;20020;-61
2023/09/20 10:43:15;;;;;;;6.57;2.33;;;;;;;20.05;81.54;99036.94;5086566;28;20025;-62
2023/09/20 10:45:43;;;;;;;5.72;1.33;;;;;;;19.72;82.93;99046.19;5087725;28;20147;-61
2023/09/20 10:48:14;;;;;;;8.90;2.28;;;;;;;19.50;83.70;99026.63;5086306;28;20369;-61
2023/09/20 10:50:49;;;;;;;10.25;2.50;;;;;;;19.44;84.45;99037.56;5087680;28;20025;-61
2023/09/20 10:53:18;;;;;;;4.75;1.67;;;;;;;19.43;85.15;99038.50;5087440;28;20027;-60
2023/09/20 10:55:44;;;;;;;12.60;2.55;;;;;;;19.38;84.99;99045.84;5087429;28;20056;-61
2023/09/20 10:58:12;;;;;;;3.70;1.88;;;;;;;19.35;85.24;99060.06;5087871;28;20024;-61
2023/09/20 11:00:38;;;;;;;3.42;1.70;;;;;;;19.22;84.44;99052.13;5087454;28;20025;-61
2023/09/20 11:03:06;;;;;;;13.73;2.55;;;;;;;19.17;85.57;99062.97;5087596;28;20024;-61
2023/09/20 11:05:32;;;;;;;4.55;1.58;;;;;;;19.16;85.36;99061.28;5087670;28;20027;-62
2023/09/20 11:08:06;;;;;;;2.20;1.13;;;;;;;19.13;85.98;99072.03;5087353;28;20112;-62
2023/09/20 11:10:33;;;;;;;3.38;1.17;;;;;;;19.08;86.00;99074.94;5087484;28;20024;-61
2023/09/20 11:12:58;;;;;;;4.55;1.35;;;;;;;18.92;85.85;99071.59;5087256;28;20028;-62
2023/09/20 11:15:24;;;;;;;3.08;1.42;;;;;;;18.79;85.84;99064.50;5087034;28;20092;-62
2023/09/20 11:17:49;;;;;;;2.17;1.23;;;;;;;18.80;86.71;99081.97;5087232;28;20040;-62
2023/09/20 11:20:14;;;;;;;1.52;1.00;;;;;;;18.93;87.91;99076.75;5087024;28;20134;-61
2023/09/20 11:22:41;;;;;;;5.93;1.60;;;;;;;18.91;87.08;99088.31;5086975;28;20020;-62
2023/09/20 11:25:07;;;;;;;3.03;1.52;;;;;;;18.83;86.95;99080.94;5087115;28;20044;-62
2023/09/20 11:27:36;;;;;;;4.45;1.58;;;;;;;18.80;87.51;99084.59;5086993;28;20028;-62
2023/09/20 11:30:08;;;;;;;10.40;1.88;;;;;;;18.80;86.54;99096.91;5086755;28;20044;-62
2023/09/20 11:32:34;;;;;;;4.10;1.60;;;;;;;18.72;87.40;99094.78;5085559;28;20024;-62
2023/09/20 11:34:59;;;;;;;5.85;1.52;;;;;;;18.61;87.63;99105.13;5086822;28;20039;-61
2023/09/20 11:37:24;;;;;;;6.25;1.63;;;;;;;18.52;88.12;99115.25;5086933;28;20031;-62
2023/09/20 11:39:52;;;;;;;9.55;2.05;;;;;;;18.42;88.57;99111.50;5086858;28;20021;-61
2023/09/20 11:42:26;;;;;;;3.35;1.27;;;;;;;18.43;89.87;99124.56;5086640;28;20033;-62
2023/09/20 11:44:58;;;;;;;1.92;1.10;;;;;;;18.33;90.42;99126.06;5086456;28;20025;-63
2023/09/20 11:47:24;;;;;;;4.05;1.23;;;;;;;18.21;91.36;99139.00;5086590;28;20029;-61
2023/09/20 11:49:50;;;;;;;1.95;1.08;;;;;;;18.08;91.55;99127.53;5086585;28;20405;-62
2023/09/20 11:52:22;;;;;;;12.73;1.42;;;;;;;17.73;91.93;99105.09;5086595;28;20132;-64
2023/09/20 11:54:48;;;;;;;6.22;2.13;;;;;;;17.63;92.84;99127.56;5086546;28;20099;-65
2023/09/20 11:57:16;;;;;;;3.67;1.35;;;;;;;17.42;93.72;99128.72;5086669;28;20027;-64
2023/09/20 11:59:43;;;;;;;3.75;1.92;;;;;;;17.29;95.09;99125.97;5085684;28;20024;-65
2023/09/20 12:02:09;;;;;;;2.92;1.25;;;;;;;17.22;96.22;99145.59;5101942;28;20396;-65
2023/09/20 12:04:35;;;;;;;8.88;0.82;;;;;;;17.06;97.13;99125.44;5086307;28;20028;-64
2023/09/20 12:07:01;;;;;;;9.18;2.10;;;;;;;16.96;98.50;99122.47;5086429;28;20027;-65
2023/09/20 12:09:27;;;;;;;7.18;1.25;;;;;;;16.98;99.74;99132.91;5086267;28;20016;-65
2023/09/20 12:11:52;;;;;;;3.63;1.95;;;;;;;16.96;100.00;99129.53;5086527;28;20162;-65